sensor_id;sensor_type;location;lat;lon;timestamp;P1;durP1;ratioP1;P2;durP2;ratioP2
26474;SDS011;14161;52.270;10.334;2022-10-16T00:00:39;0.50;;;0.50;;
26474;SDS011;14161;52.270;10.334;2022-10-16T00:03:05;0.70;;;0.57;;
26474;SDS011;14161;52.270;10.334;2022-10-16T00:05:31;0.77;;;0.45;;
26474;SDS011;14161;52.270;10.334;2022-10-16T00:07:57;0.98;;;0.60;;
26474;SDS011;14161;52.270;10.334;2022-10-16T00:10:22;0.57;;;0.55;;
26474;SDS011;14161;52.270;10.334;2022-10-16T00:12:48;0.50;;;0.50;;
26474;SDS011;14161;52.270;10.334;2022-10-16T00:15:13;1.73;;;0.70;;
26474;SDS011;14161;52.270;10.334;2022-10-16T00:17:39;0.70;;;0.52;;
26474;SDS011;14161;52.270;10.334;2022-10-16T00:20:04;1.08;;;0.60;;
26474;SDS011;14161;52.270;10.334;2022-10-16T00:22:30;0.95;;;0.70;;
26474;SDS011;14161;52.270;10.334;2022-10-16T00:24:56;1.02;;;0.50;;
26474;SDS011;14161;52.270;10.334;2022-10-16T00:27:21;2.00;;;0.45;;
26474;SDS011;14161;52.270;10.334;2022-10-16T00:29:51;2.38;;;0.50;;
26474;SDS011;14161;52.270;10.334;2022-10-16T00:32:19;0.50;;;0.50;;
26474;SDS011;14161;52.270;10.334;2022-10-16T00:34:44;1.00;;;0.82;;
26474;SDS011;14161;52.270;10.334;2022-10-16T00:37:10;0.85;;;0.60;;
26474;SDS011;14161;52.270;10.334;2022-10-16T00:39:36;0.82;;;0.70;;
26474;SDS011;14161;52.270;10.334;2022-10-16T00:42:01;0.45;;;0.43;;
26474;SDS011;14161;52.270;10.334;2022-10-16T00:47:36;0.40;;;0.40;;
26474;SDS011;14161;52.270;10.334;2022-10-16T00:50:08;1.02;;;0.70;;
26474;SDS011;14161;52.270;10.334;2022-10-16T00:52:35;1.77;;;0.88;;
26474;SDS011;14161;52.270;10.334;2022-10-16T00:55:02;0.75;;;0.75;;
26474;SDS011;14161;52.270;10.334;2022-10-16T00:57:29;0.68;;;0.68;;
26474;SDS011;14161;52.270;10.334;2022-10-16T00:59:55;1.30;;;0.73;;
26474;SDS011;14161;52.270;10.334;2022-10-16T01:02:21;1.02;;;0.80;;
26474;SDS011;14161;52.270;10.334;2022-10-16T01:04:48;0.75;;;0.70;;
26474;SDS011;14161;52.270;10.334;2022-10-16T01:07:25;1.00;;;0.80;;
26474;SDS011;14161;52.270;10.334;2022-10-16T01:10:29;3.60;;;0.52;;
26474;SDS011;14161;52.270;10.334;2022-10-16T01:21:21;0.85;;;0.60;;
26474;SDS011;14161;52.270;10.334;2022-10-16T01:27:01;1.00;;;0.90;;
26474;SDS011;14161;52.270;10.334;2022-10-16T01:32:20;1.20;;;0.80;;
26474;SDS011;14161;52.270;10.334;2022-10-16T01:34:48;2.08;;;0.80;;
26474;SDS011;14161;52.270;10.334;2022-10-16T01:37:20;1.10;;;0.70;;
26474;SDS011;14161;52.270;10.334;2022-10-16T01:39:50;0.93;;;0.75;;
26474;SDS011;14161;52.270;10.334;2022-10-16T01:42:21;1.33;;;0.85;;
26474;SDS011;14161;52.270;10.334;2022-10-16T01:44:48;0.70;;;0.70;;
26474;SDS011;14161;52.270;10.334;2022-10-16T01:47:14;0.88;;;0.80;;
26474;SDS011;14161;52.270;10.334;2022-10-16T01:49:41;0.90;;;0.65;;
26474;SDS011;14161;52.270;10.334;2022-10-16T01:52:09;2.13;;;1.10;;
26474;SDS011;14161;52.270;10.334;2022-10-16T01:54:37;1.48;;;0.88;;
26474;SDS011;14161;52.270;10.334;2022-10-16T01:57:04;1.45;;;0.95;;
26474;SDS011;14161;52.270;10.334;2022-10-16T01:59:36;0.75;;;0.65;;
26474;SDS011;14161;52.270;10.334;2022-10-16T02:02:07;1.50;;;1.02;;
26474;SDS011;14161;52.270;10.334;2022-10-16T02:04:34;1.20;;;0.82;;
26474;SDS011;14161;52.270;10.334;2022-10-16T02:07:02;1.15;;;1.00;;
26474;SDS011;14161;52.270;10.334;2022-10-16T02:09:27;3.17;;;1.23;;
26474;SDS011;14161;52.270;10.334;2022-10-16T02:11:55;0.90;;;0.90;;
26474;SDS011;14161;52.270;10.334;2022-10-16T02:14:21;1.20;;;1.10;;
26474;SDS011;14161;52.270;10.334;2022-10-16T02:16:49;0.93;;;0.90;;
26474;SDS011;14161;52.270;10.334;2022-10-16T02:19:15;1.00;;;0.90;;
26474;SDS011;14161;52.270;10.334;2022-10-16T02:27:05;1.00;;;0.98;;
26474;SDS011;14161;52.270;10.334;2022-10-16T02:29:33;1.88;;;1.05;;
26474;SDS011;14161;52.270;10.334;2022-10-16T02:32:04;1.10;;;1.00;;
26474;SDS011;14161;52.270;10.334;2022-10-16T02:34:32;1.48;;;1.30;;
26474;SDS011;14161;52.270;10.334;2022-10-16T02:36:58;2.45;;;1.10;;
26474;SDS011;14161;52.270;10.334;2022-10-16T02:39:25;3.75;;;2.00;;
26474;SDS011;14161;52.270;10.334;2022-10-16T02:41:52;1.67;;;1.20;;
26474;SDS011;14161;52.270;10.334;2022-10-16T02:44:18;1.52;;;0.75;;
26474;SDS011;14161;52.270;10.334;2022-10-16T02:46:43;2.63;;;1.10;;
26474;SDS011;14161;52.270;10.334;2022-10-16T02:49:09;2.45;;;1.00;;
26474;SDS011;14161;52.270;10.334;2022-10-16T02:51:34;1.48;;;1.00;;
26474;SDS011;14161;52.270;10.334;2022-10-16T02:54:00;0.80;;;0.80;;
26474;SDS011;14161;52.270;10.334;2022-10-16T02:56:26;1.63;;;0.88;;
26474;SDS011;14161;52.270;10.334;2022-10-16T02:58:52;0.85;;;0.77;;
26474;SDS011;14161;52.270;10.334;2022-10-16T03:01:17;0.80;;;0.70;;
26474;SDS011;14161;52.270;10.334;2022-10-16T03:03:43;1.90;;;0.98;;
26474;SDS011;14161;52.270;10.334;2022-10-16T03:06:08;3.03;;;0.70;;
26474;SDS011;14161;52.270;10.334;2022-10-16T03:08:34;2.22;;;1.00;;
26474;SDS011;14161;52.270;10.334;2022-10-16T03:10:59;1.02;;;0.77;;
26474;SDS011;14161;52.270;10.334;2022-10-16T03:13:27;1.33;;;0.90;;
26474;SDS011;14161;52.270;10.334;2022-10-16T03:15:52;2.53;;;0.95;;
26474;SDS011;14161;52.270;10.334;2022-10-16T03:18:18;0.70;;;0.70;;
26474;SDS011;14161;52.270;10.334;2022-10-16T03:20:43;1.35;;;0.82;;
26474;SDS011;14161;52.270;10.334;2022-10-16T03:23:09;1.40;;;0.82;;
26474;SDS011;14161;52.270;10.334;2022-10-16T03:25:34;1.58;;;0.88;;
26474;SDS011;14161;52.270;10.334;2022-10-16T03:28:00;1.92;;;0.73;;
26474;SDS011;14161;52.270;10.334;2022-10-16T03:30:26;0.90;;;0.75;;
26474;SDS011;14161;52.270;10.334;2022-10-16T03:32:51;1.77;;;0.80;;
26474;SDS011;14161;52.270;10.334;2022-10-16T03:35:22;1.10;;;0.90;;
26474;SDS011;14161;52.270;10.334;2022-10-16T03:37:48;1.42;;;1.00;;
26474;SDS011;14161;52.270;10.334;2022-10-16T03:40:17;1.42;;;1.00;;
26474;SDS011;14161;52.270;10.334;2022-10-16T03:42:43;2.80;;;0.98;;
26474;SDS011;14161;52.270;10.334;2022-10-16T03:45:09;1.27;;;0.85;;
26474;SDS011;14161;52.270;10.334;2022-10-16T03:47:35;1.15;;;1.02;;
26474;SDS011;14161;52.270;10.334;2022-10-16T03:50:01;1.10;;;1.00;;
26474;SDS011;14161;52.270;10.334;2022-10-16T03:52:26;1.52;;;1.05;;
26474;SDS011;14161;52.270;10.334;2022-10-16T03:54:52;0.98;;;0.93;;
26474;SDS011;14161;52.270;10.334;2022-10-16T03:57:17;1.42;;;0.80;;
26474;SDS011;14161;52.270;10.334;2022-10-16T03:59:43;1.40;;;1.08;;
26474;SDS011;14161;52.270;10.334;2022-10-16T04:02:08;2.55;;;0.98;;
26474;SDS011;14161;52.270;10.334;2022-10-16T04:04:34;1.98;;;0.90;;
26474;SDS011;14161;52.270;10.334;2022-10-16T04:06:59;1.42;;;0.98;;
26474;SDS011;14161;52.270;10.334;2022-10-16T04:09:25;1.60;;;1.15;;
26474;SDS011;14161;52.270;10.334;2022-10-16T04:11:51;1.00;;;1.00;;
26474;SDS011;14161;52.270;10.334;2022-10-16T04:14:16;1.35;;;1.10;;
26474;SDS011;14161;52.270;10.334;2022-10-16T04:16:42;1.48;;;1.23;;
26474;SDS011;14161;52.270;10.334;2022-10-16T04:19:08;2.70;;;1.00;;
26474;SDS011;14161;52.270;10.334;2022-10-16T04:21:34;1.45;;;1.25;;
26474;SDS011;14161;52.270;10.334;2022-10-16T04:23:59;2.08;;;1.27;;
26474;SDS011;14161;52.270;10.334;2022-10-16T04:26:25;1.27;;;1.17;;
26474;SDS011;14161;52.270;10.334;2022-10-16T04:28:50;1.73;;;1.10;;
26474;SDS011;14161;52.270;10.334;2022-10-16T04:31:16;2.55;;;1.23;;
26474;SDS011;14161;52.270;10.334;2022-10-16T04:33:42;1.60;;;1.00;;
26474;SDS011;14161;52.270;10.334;2022-10-16T04:36:08;3.35;;;1.40;;
26474;SDS011;14161;52.270;10.334;2022-10-16T04:38:34;1.90;;;0.90;;
26474;SDS011;14161;52.270;10.334;2022-10-16T04:40:59;1.33;;;0.98;;
26474;SDS011;14161;52.270;10.334;2022-10-16T04:43:25;1.10;;;1.00;;
26474;SDS011;14161;52.270;10.334;2022-10-16T04:45:51;1.38;;;1.08;;
26474;SDS011;14161;52.270;10.334;2022-10-16T04:48:17;2.00;;;1.20;;
26474;SDS011;14161;52.270;10.334;2022-10-16T04:50:43;1.38;;;1.27;;
26474;SDS011;14161;52.270;10.334;2022-10-16T04:53:08;4.13;;;1.08;;
26474;SDS011;14161;52.270;10.334;2022-10-16T04:55:34;1.48;;;1.17;;
26474;SDS011;14161;52.270;10.334;2022-10-16T04:57:59;2.60;;;1.45;;
26474;SDS011;14161;52.270;10.334;2022-10-16T05:00:25;1.40;;;1.30;;
26474;SDS011;14161;52.270;10.334;2022-10-16T05:02:50;4.00;;;1.40;;
26474;SDS011;14161;52.270;10.334;2022-10-16T05:05:16;1.20;;;1.10;;
26474;SDS011;14161;52.270;10.334;2022-10-16T05:07:44;3.80;;;1.80;;
26474;SDS011;14161;52.270;10.334;2022-10-16T05:10:09;1.27;;;1.17;;
26474;SDS011;14161;52.270;10.334;2022-10-16T05:12:34;2.42;;;1.30;;
26474;SDS011;14161;52.270;10.334;2022-10-16T05:15:00;1.95;;;1.17;;
26474;SDS011;14161;52.270;10.334;2022-10-16T05:17:26;2.47;;;1.52;;
26474;SDS011;14161;52.270;10.334;2022-10-16T05:19:51;2.20;;;1.75;;
26474;SDS011;14161;52.270;10.334;2022-10-16T05:22:17;1.65;;;1.55;;
26474;SDS011;14161;52.270;10.334;2022-10-16T05:24:42;2.10;;;1.58;;
26474;SDS011;14161;52.270;10.334;2022-10-16T05:27:08;1.50;;;1.40;;
26474;SDS011;14161;52.270;10.334;2022-10-16T05:29:33;2.45;;;1.40;;
26474;SDS011;14161;52.270;10.334;2022-10-16T05:31:59;1.67;;;1.58;;
26474;SDS011;14161;52.270;10.334;2022-10-16T05:34:24;1.60;;;1.50;;
26474;SDS011;14161;52.270;10.334;2022-10-16T05:36:49;1.80;;;1.40;;
26474;SDS011;14161;52.270;10.334;2022-10-16T05:39:16;4.00;;;1.40;;
26474;SDS011;14161;52.270;10.334;2022-10-16T05:41:42;1.95;;;1.58;;
26474;SDS011;14161;52.270;10.334;2022-10-16T05:44:08;1.65;;;1.35;;
26474;SDS011;14161;52.270;10.334;2022-10-16T05:46:33;1.65;;;1.40;;
26474;SDS011;14161;52.270;10.334;2022-10-16T05:48:59;2.17;;;1.52;;
26474;SDS011;14161;52.270;10.334;2022-10-16T05:51:24;2.20;;;2.00;;
26474;SDS011;14161;52.270;10.334;2022-10-16T05:53:50;3.53;;;2.55;;
26474;SDS011;14161;52.270;10.334;2022-10-16T05:56:15;4.55;;;3.30;;
26474;SDS011;14161;52.270;10.334;2022-10-16T05:58:41;4.30;;;3.10;;
26474;SDS011;14161;52.270;10.334;2022-10-16T06:01:09;4.88;;;2.80;;
26474;SDS011;14161;52.270;10.334;2022-10-16T06:03:35;3.33;;;2.10;;
26474;SDS011;14161;52.270;10.334;2022-10-16T06:06:11;2.67;;;1.90;;
26474;SDS011;14161;52.270;10.334;2022-10-16T06:08:41;7.20;;;2.10;;
26474;SDS011;14161;52.270;10.334;2022-10-16T06:11:08;4.20;;;2.08;;
26474;SDS011;14161;52.270;10.334;2022-10-16T06:13:35;2.22;;;2.00;;
26474;SDS011;14161;52.270;10.334;2022-10-16T06:16:01;2.30;;;1.90;;
26474;SDS011;14161;52.270;10.334;2022-10-16T06:18:27;2.45;;;1.70;;
26474;SDS011;14161;52.270;10.334;2022-10-16T06:20:54;3.15;;;1.48;;
26474;SDS011;14161;52.270;10.334;2022-10-16T06:23:20;1.58;;;1.48;;
26474;SDS011;14161;52.270;10.334;2022-10-16T06:25:45;1.77;;;1.52;;
26474;SDS011;14161;52.270;10.334;2022-10-16T06:28:11;3.70;;;1.60;;
26474;SDS011;14161;52.270;10.334;2022-10-16T06:30:38;1.70;;;1.25;;
26474;SDS011;14161;52.270;10.334;2022-10-16T06:33:04;1.70;;;1.40;;
26474;SDS011;14161;52.270;10.334;2022-10-16T06:35:29;5.18;;;1.48;;
26474;SDS011;14161;52.270;10.334;2022-10-16T06:37:56;2.72;;;2.42;;
26474;SDS011;14161;52.270;10.334;2022-10-16T06:40:22;2.63;;;2.08;;
26474;SDS011;14161;52.270;10.334;2022-10-16T06:42:47;2.38;;;1.80;;
26474;SDS011;14161;52.270;10.334;2022-10-16T06:45:13;2.03;;;1.83;;
26474;SDS011;14161;52.270;10.334;2022-10-16T06:47:38;2.78;;;1.73;;
26474;SDS011;14161;52.270;10.334;2022-10-16T06:50:04;2.50;;;1.88;;
26474;SDS011;14161;52.270;10.334;2022-10-16T06:52:32;1.95;;;1.75;;
26474;SDS011;14161;52.270;10.334;2022-10-16T06:54:58;1.80;;;1.45;;
26474;SDS011;14161;52.270;10.334;2022-10-16T06:57:23;2.35;;;1.50;;
26474;SDS011;14161;52.270;10.334;2022-10-16T06:59:49;1.50;;;1.40;;
26474;SDS011;14161;52.270;10.334;2022-10-16T07:02:14;1.90;;;1.33;;
26474;SDS011;14161;52.270;10.334;2022-10-16T07:04:40;2.30;;;1.63;;
26474;SDS011;14161;52.270;10.334;2022-10-16T07:07:05;3.17;;;1.05;;
26474;SDS011;14161;52.270;10.334;2022-10-16T07:09:31;1.27;;;1.17;;
26474;SDS011;14161;52.270;10.334;2022-10-16T07:11:56;2.08;;;1.20;;
26474;SDS011;14161;52.270;10.334;2022-10-16T07:14:22;1.42;;;1.10;;
26474;SDS011;14161;52.270;10.334;2022-10-16T07:16:47;2.42;;;1.40;;
26474;SDS011;14161;52.270;10.334;2022-10-16T07:19:18;1.58;;;1.40;;
26474;SDS011;14161;52.270;10.334;2022-10-16T07:21:49;1.60;;;1.50;;
26474;SDS011;14161;52.270;10.334;2022-10-16T07:24:28;2.05;;;1.27;;
26474;SDS011;14161;52.270;10.334;2022-10-16T07:27:14;1.23;;;1.13;;
26474;SDS011;14161;52.270;10.334;2022-10-16T07:29:41;1.45;;;1.20;;
26474;SDS011;14161;52.270;10.334;2022-10-16T07:32:07;1.20;;;1.10;;
26474;SDS011;14161;52.270;10.334;2022-10-16T07:34:33;3.72;;;1.35;;
26474;SDS011;14161;52.270;10.334;2022-10-16T07:36:58;1.85;;;1.23;;
26474;SDS011;14161;52.270;10.334;2022-10-16T07:39:24;1.80;;;1.35;;
26474;SDS011;14161;52.270;10.334;2022-10-16T07:41:49;3.35;;;1.23;;
26474;SDS011;14161;52.270;10.334;2022-10-16T07:44:15;1.40;;;1.30;;
26474;SDS011;14161;52.270;10.334;2022-10-16T07:46:43;1.30;;;1.20;;
26474;SDS011;14161;52.270;10.334;2022-10-16T07:49:14;1.65;;;1.05;;
26474;SDS011;14161;52.270;10.334;2022-10-16T07:55:16;1.10;;;1.00;;
26474;SDS011;14161;52.270;10.334;2022-10-16T08:01:57;1.48;;;1.00;;
26474;SDS011;14161;52.270;10.334;2022-10-16T08:07:31;0.85;;;0.85;;
26474;SDS011;14161;52.270;10.334;2022-10-16T08:11:03;0.98;;;0.90;;
26474;SDS011;14161;52.270;10.334;2022-10-16T08:14:05;1.13;;;0.93;;
26474;SDS011;14161;52.270;10.334;2022-10-16T08:16:30;2.50;;;1.02;;
26474;SDS011;14161;52.270;10.334;2022-10-16T08:19:02;1.00;;;0.80;;
26474;SDS011;14161;52.270;10.334;2022-10-16T08:21:46;1.13;;;0.80;;
26474;SDS011;14161;52.270;10.334;2022-10-16T08:50:08;0.80;;;0.70;;
26474;SDS011;14161;52.270;10.334;2022-10-16T08:53:02;1.10;;;0.73;;
26474;SDS011;14161;52.270;10.334;2022-10-16T08:56:54;0.43;;;0.43;;
26474;SDS011;14161;52.270;10.334;2022-10-16T09:22:37;0.50;;;0.50;;
26474;SDS011;14161;52.270;10.334;2022-10-16T09:26:03;2.15;;;0.60;;
26474;SDS011;14161;52.270;10.334;2022-10-16T09:33:33;1.55;;;0.60;;
26474;SDS011;14161;52.270;10.334;2022-10-16T09:36:31;2.85;;;0.50;;
26474;SDS011;14161;52.270;10.334;2022-10-16T09:47:22;1.05;;;0.40;;
26474;SDS011;14161;52.270;10.334;2022-10-16T09:57:31;0.90;;;0.47;;
26474;SDS011;14161;52.270;10.334;2022-10-16T10:00:53;1.52;;;0.38;;
26474;SDS011;14161;52.270;10.334;2022-10-16T10:11:02;0.55;;;0.40;;
26474;SDS011;14161;52.270;10.334;2022-10-16T11:10:38;0.88;;;0.30;;
26474;SDS011;14161;52.270;10.334;2022-10-16T11:17:18;2.28;;;0.40;;
26474;SDS011;14161;52.270;10.334;2022-10-16T11:20:00;1.55;;;0.57;;
26474;SDS011;14161;52.270;10.334;2022-10-16T11:22:32;3.60;;;0.50;;
26474;SDS011;14161;52.270;10.334;2022-10-16T11:27:39;2.13;;;0.40;;
26474;SDS011;14161;52.270;10.334;2022-10-16T11:30:18;3.40;;;0.55;;
26474;SDS011;14161;52.270;10.334;2022-10-16T11:32:50;2.50;;;0.55;;
26474;SDS011;14161;52.270;10.334;2022-10-16T11:35:19;2.72;;;0.45;;
26474;SDS011;14161;52.270;10.334;2022-10-16T11:37:48;1.25;;;0.40;;
26474;SDS011;14161;52.270;10.334;2022-10-16T11:40:32;1.05;;;0.45;;
26474;SDS011;14161;52.270;10.334;2022-10-16T11:43:05;2.13;;;0.60;;
26474;SDS011;14161;52.270;10.334;2022-10-16T11:45:44;1.17;;;0.40;;
26474;SDS011;14161;52.270;10.334;2022-10-16T11:48:15;1.88;;;0.47;;
26474;SDS011;14161;52.270;10.334;2022-10-16T11:50:50;1.00;;;0.60;;
26474;SDS011;14161;52.270;10.334;2022-10-16T11:56:05;1.40;;;0.47;;
26474;SDS011;14161;52.270;10.334;2022-10-16T11:58:41;1.77;;;0.43;;
26474;SDS011;14161;52.270;10.334;2022-10-16T12:01:27;1.80;;;0.52;;
26474;SDS011;14161;52.270;10.334;2022-10-16T12:04:14;1.08;;;0.40;;
26474;SDS011;14161;52.270;10.334;2022-10-16T12:06:48;1.17;;;0.50;;
26474;SDS011;14161;52.270;10.334;2022-10-16T12:15:03;1.25;;;0.35;;
26474;SDS011;14161;52.270;10.334;2022-10-16T12:23:16;3.55;;;0.60;;
26474;SDS011;14161;52.270;10.334;2022-10-16T12:25:53;1.48;;;0.40;;
26474;SDS011;14161;52.270;10.334;2022-10-16T12:28:22;2.38;;;0.55;;
26474;SDS011;14161;52.270;10.334;2022-10-16T12:31:02;0.50;;;0.35;;
26474;SDS011;14161;52.270;10.334;2022-10-16T12:33:30;0.25;;;0.25;;
26474;SDS011;14161;52.270;10.334;2022-10-16T12:35:58;3.33;;;0.63;;
26474;SDS011;14161;52.270;10.334;2022-10-16T12:38:25;3.17;;;0.40;;
26474;SDS011;14161;52.270;10.334;2022-10-16T12:40:59;1.38;;;0.47;;
26474;SDS011;14161;52.270;10.334;2022-10-16T12:48:32;0.20;;;0.20;;
26474;SDS011;14161;52.270;10.334;2022-10-16T12:51:09;1.45;;;0.55;;
26474;SDS011;14161;52.270;10.334;2022-10-16T12:53:35;3.47;;;0.40;;
26474;SDS011;14161;52.270;10.334;2022-10-16T12:59:10;3.67;;;1.58;;
26474;SDS011;14161;52.270;10.334;2022-10-16T13:04:20;3.15;;;1.10;;
26474;SDS011;14161;52.270;10.334;2022-10-16T13:07:09;1.08;;;0.70;;
26474;SDS011;14161;52.270;10.334;2022-10-16T13:20:12;3.50;;;1.52;;
26474;SDS011;14161;52.270;10.334;2022-10-16T13:25:35;1.48;;;0.80;;
26474;SDS011;14161;52.270;10.334;2022-10-16T13:28:13;2.97;;;1.10;;
26474;SDS011;14161;52.270;10.334;2022-10-16T13:30:42;0.30;;;0.30;;
26474;SDS011;14161;52.270;10.334;2022-10-16T13:35:51;0.90;;;0.40;;
26474;SDS011;14161;52.270;10.334;2022-10-16T13:38:19;0.70;;;0.50;;
26474;SDS011;14161;52.270;10.334;2022-10-16T13:46:10;0.20;;;0.20;;
26474;SDS011;14161;52.270;10.334;2022-10-16T13:48:37;1.15;;;0.50;;
26474;SDS011;14161;52.270;10.334;2022-10-16T13:51:04;2.42;;;0.65;;
26474;SDS011;14161;52.270;10.334;2022-10-16T13:53:31;0.75;;;0.30;;
26474;SDS011;14161;52.270;10.334;2022-10-16T13:55:58;1.23;;;0.40;;
26474;SDS011;14161;52.270;10.334;2022-10-16T13:58:25;2.65;;;0.30;;
26474;SDS011;14161;52.270;10.334;2022-10-16T14:03:49;1.67;;;0.40;;
26474;SDS011;14161;52.270;10.334;2022-10-16T14:06:19;1.55;;;0.43;;
26474;SDS011;14161;52.270;10.334;2022-10-16T14:08:50;0.17;;;0.13;;
26474;SDS011;14161;52.270;10.334;2022-10-16T14:11:44;0.77;;;0.38;;
26474;SDS011;14161;52.270;10.334;2022-10-16T14:14:12;1.65;;;0.50;;
26474;SDS011;14161;52.270;10.334;2022-10-16T14:16:40;0.20;;;0.20;;
26474;SDS011;14161;52.270;10.334;2022-10-16T14:19:06;1.35;;;0.30;;
26474;SDS011;14161;52.270;10.334;2022-10-16T14:21:33;0.88;;;0.25;;
26474;SDS011;14161;52.270;10.334;2022-10-16T14:23:59;0.40;;;0.30;;
26474;SDS011;14161;52.270;10.334;2022-10-16T14:26:40;2.13;;;0.40;;
26474;SDS011;14161;52.270;10.334;2022-10-16T14:29:17;1.13;;;0.50;;
26474;SDS011;14161;52.270;10.334;2022-10-16T14:31:54;2.72;;;0.50;;
26474;SDS011;14161;52.270;10.334;2022-10-16T14:34:33;1.02;;;0.20;;
26474;SDS011;14161;52.270;10.334;2022-10-16T14:37:00;1.23;;;0.30;;
26474;SDS011;14161;52.270;10.334;2022-10-16T14:39:32;0.82;;;0.40;;
26474;SDS011;14161;52.270;10.334;2022-10-16T14:41:58;0.40;;;0.30;;
26474;SDS011;14161;52.270;10.334;2022-10-16T14:44:26;1.05;;;0.30;;
26474;SDS011;14161;52.270;10.334;2022-10-16T14:46:54;1.05;;;0.32;;
26474;SDS011;14161;52.270;10.334;2022-10-16T14:49:20;0.70;;;0.40;;
26474;SDS011;14161;52.270;10.334;2022-10-16T14:51:46;0.30;;;0.20;;
26474;SDS011;14161;52.270;10.334;2022-10-16T14:54:12;0.98;;;0.40;;
26474;SDS011;14161;52.270;10.334;2022-10-16T14:56:46;1.17;;;0.40;;
26474;SDS011;14161;52.270;10.334;2022-10-16T15:01:53;0.90;;;0.32;;
26474;SDS011;14161;52.270;10.334;2022-10-16T15:04:19;2.83;;;0.30;;
26474;SDS011;14161;52.270;10.334;2022-10-16T15:06:44;1.02;;;0.40;;
26474;SDS011;14161;52.270;10.334;2022-10-16T15:09:10;1.42;;;0.38;;
26474;SDS011;14161;52.270;10.334;2022-10-16T15:11:35;1.20;;;0.50;;
26474;SDS011;14161;52.270;10.334;2022-10-16T15:14:01;0.95;;;0.30;;
26474;SDS011;14161;52.270;10.334;2022-10-16T15:16:28;0.28;;;0.20;;
26474;SDS011;14161;52.270;10.334;2022-10-16T15:18:54;0.60;;;0.40;;
26474;SDS011;14161;52.270;10.334;2022-10-16T15:21:30;2.28;;;0.60;;
26474;SDS011;14161;52.270;10.334;2022-10-16T15:23:57;1.92;;;0.30;;
26474;SDS011;14161;52.270;10.334;2022-10-16T15:26:27;0.77;;;0.30;;
26474;SDS011;14161;52.270;10.334;2022-10-16T15:28:53;0.88;;;0.30;;
26474;SDS011;14161;52.270;10.334;2022-10-16T15:31:19;1.83;;;0.40;;
26474;SDS011;14161;52.270;10.334;2022-10-16T15:33:48;1.65;;;0.38;;
26474;SDS011;14161;52.270;10.334;2022-10-16T15:36:24;1.23;;;0.30;;
26474;SDS011;14161;52.270;10.334;2022-10-16T15:38:50;1.45;;;0.40;;
26474;SDS011;14161;52.270;10.334;2022-10-16T15:44:01;1.38;;;0.57;;
26474;SDS011;14161;52.270;10.334;2022-10-16T15:46:27;1.83;;;0.30;;
26474;SDS011;14161;52.270;10.334;2022-10-16T15:48:56;0.77;;;0.30;;
26474;SDS011;14161;52.270;10.334;2022-10-16T15:51:22;0.30;;;0.28;;
26474;SDS011;14161;52.270;10.334;2022-10-16T15:53:48;0.50;;;0.30;;
26474;SDS011;14161;52.270;10.334;2022-10-16T15:56:13;0.82;;;0.30;;
26474;SDS011;14161;52.270;10.334;2022-10-16T15:58:41;0.28;;;0.25;;
26474;SDS011;14161;52.270;10.334;2022-10-16T16:01:07;0.40;;;0.30;;
26474;SDS011;14161;52.270;10.334;2022-10-16T16:03:34;0.68;;;0.32;;
26474;SDS011;14161;52.270;10.334;2022-10-16T16:06:07;0.98;;;0.40;;
26474;SDS011;14161;52.270;10.334;2022-10-16T16:08:34;0.28;;;0.22;;
26474;SDS011;14161;52.270;10.334;2022-10-16T16:11:01;1.27;;;0.30;;
26474;SDS011;14161;52.270;10.334;2022-10-16T16:13:28;0.30;;;0.30;;
26474;SDS011;14161;52.270;10.334;2022-10-16T16:15:53;0.77;;;0.38;;
26474;SDS011;14161;52.270;10.334;2022-10-16T16:18:19;0.85;;;0.35;;
26474;SDS011;14161;52.270;10.334;2022-10-16T16:20:44;0.75;;;0.30;;
26474;SDS011;14161;52.270;10.334;2022-10-16T16:23:10;0.45;;;0.40;;
26474;SDS011;14161;52.270;10.334;2022-10-16T16:25:35;1.15;;;0.63;;
26474;SDS011;14161;52.270;10.334;2022-10-16T16:28:01;2.25;;;0.50;;
26474;SDS011;14161;52.270;10.334;2022-10-16T16:30:26;0.70;;;0.40;;
26474;SDS011;14161;52.270;10.334;2022-10-16T16:32:52;1.50;;;0.55;;
26474;SDS011;14161;52.270;10.334;2022-10-16T16:35:17;1.60;;;0.82;;
26474;SDS011;14161;52.270;10.334;2022-10-16T16:37:42;2.38;;;0.68;;
26474;SDS011;14161;52.270;10.334;2022-10-16T16:40:08;1.85;;;1.05;;
26474;SDS011;14161;52.270;10.334;2022-10-16T16:42:33;3.85;;;1.17;;
26474;SDS011;14161;52.270;10.334;2022-10-16T16:44:59;4.50;;;1.27;;
26474;SDS011;14161;52.270;10.334;2022-10-16T16:47:25;1.98;;;1.35;;
26474;SDS011;14161;52.270;10.334;2022-10-16T16:49:50;1.42;;;1.20;;
26474;SDS011;14161;52.270;10.334;2022-10-16T16:52:16;1.52;;;1.38;;
26474;SDS011;14161;52.270;10.334;2022-10-16T16:54:42;3.08;;;1.88;;
26474;SDS011;14161;52.270;10.334;2022-10-16T16:57:09;2.67;;;1.98;;
26474;SDS011;14161;52.270;10.334;2022-10-16T16:59:35;3.97;;;2.22;;
26474;SDS011;14161;52.270;10.334;2022-10-16T17:02:01;1.77;;;1.30;;
26474;SDS011;14161;52.270;10.334;2022-10-16T17:04:27;2.85;;;1.05;;
26474;SDS011;14161;52.270;10.334;2022-10-16T17:06:53;1.80;;;0.90;;
26474;SDS011;14161;52.270;10.334;2022-10-16T17:09:19;0.60;;;0.60;;
26474;SDS011;14161;52.270;10.334;2022-10-16T17:11:45;1.30;;;0.70;;
26474;SDS011;14161;52.270;10.334;2022-10-16T17:14:11;0.68;;;0.68;;
26474;SDS011;14161;52.270;10.334;2022-10-16T17:16:37;1.38;;;0.80;;
26474;SDS011;14161;52.270;10.334;2022-10-16T17:19:07;1.20;;;0.80;;
26474;SDS011;14161;52.270;10.334;2022-10-16T17:21:35;7.28;;;3.45;;
26474;SDS011;14161;52.270;10.334;2022-10-16T17:24:01;4.70;;;2.92;;
26474;SDS011;14161;52.270;10.334;2022-10-16T17:26:27;3.70;;;2.65;;
26474;SDS011;14161;52.270;10.334;2022-10-16T17:28:54;2.42;;;1.85;;
26474;SDS011;14161;52.270;10.334;2022-10-16T17:31:22;4.93;;;1.50;;
26474;SDS011;14161;52.270;10.334;2022-10-16T17:33:49;3.20;;;1.40;;
26474;SDS011;14161;52.270;10.334;2022-10-16T17:36:16;2.88;;;1.25;;
26474;SDS011;14161;52.270;10.334;2022-10-16T17:38:42;2.80;;;1.70;;
26474;SDS011;14161;52.270;10.334;2022-10-16T17:41:15;3.75;;;1.88;;
26474;SDS011;14161;52.270;10.334;2022-10-16T17:43:43;2.83;;;1.38;;
26474;SDS011;14161;52.270;10.334;2022-10-16T17:46:09;2.40;;;1.52;;
26474;SDS011;14161;52.270;10.334;2022-10-16T17:48:39;4.15;;;1.30;;
26474;SDS011;14161;52.270;10.334;2022-10-16T17:51:06;1.92;;;1.10;;
26474;SDS011;14161;52.270;10.334;2022-10-16T17:53:33;2.20;;;1.27;;
26474;SDS011;14161;52.270;10.334;2022-10-16T17:56:03;2.15;;;1.20;;
26474;SDS011;14161;52.270;10.334;2022-10-16T17:58:38;1.25;;;1.00;;
26474;SDS011;14161;52.270;10.334;2022-10-16T18:01:13;3.30;;;1.08;;
26474;SDS011;14161;52.270;10.334;2022-10-16T18:03:43;1.50;;;1.15;;
26474;SDS011;14161;52.270;10.334;2022-10-16T18:06:08;3.40;;;1.20;;
26474;SDS011;14161;52.270;10.334;2022-10-16T18:08:34;1.88;;;1.20;;
26474;SDS011;14161;52.270;10.334;2022-10-16T18:11:01;3.70;;;1.33;;
26474;SDS011;14161;52.270;10.334;2022-10-16T18:13:27;1.63;;;1.10;;
26474;SDS011;14161;52.270;10.334;2022-10-16T18:16:00;1.42;;;1.10;;
26474;SDS011;14161;52.270;10.334;2022-10-16T18:18:29;6.40;;;3.38;;
26474;SDS011;14161;52.270;10.334;2022-10-16T18:20:56;6.18;;;3.72;;
26474;SDS011;14161;52.270;10.334;2022-10-16T18:23:25;8.02;;;3.22;;
26474;SDS011;14161;52.270;10.334;2022-10-16T18:25:51;5.50;;;3.10;;
26474;SDS011;14161;52.270;10.334;2022-10-16T18:28:17;4.63;;;2.60;;
26474;SDS011;14161;52.270;10.334;2022-10-16T18:30:42;4.15;;;2.42;;
26474;SDS011;14161;52.270;10.334;2022-10-16T18:33:08;4.30;;;2.40;;